sensor_id;sensor_type;location;lat;lon;timestamp;noise_LAeq;noise_LA_min;noise_LA_max;noise_LA01;noise_LA95
72028;Laerm;59781;52.090;5.030;2023-02-01T00:02:06;40.83;37.70;46.41;;
72028;Laerm;59781;52.090;5.030;2023-02-01T00:04:32;41.13;37.64;46.73;;
72028;Laerm;59781;52.090;5.030;2023-02-01T00:06:58;40.81;37.37;46.76;;
72028;Laerm;59781;52.090;5.030;2023-02-01T00:09:24;41.07;37.72;51.93;;
72028;Laerm;59781;52.090;5.030;2023-02-01T00:11:49;41.13;38.14;46.55;;
72028;Laerm;59781;52.090;5.030;2023-02-01T00:14:15;40.67;37.59;49.08;;
72028;Laerm;59781;52.090;5.030;2023-02-01T00:16:41;42.29;38.56;61.18;;
72028;Laerm;59781;52.090;5.030;2023-02-01T00:19:14;41.19;37.97;52.03;;
72028;Laerm;59781;52.090;5.030;2023-02-01T00:21:40;40.34;37.08;52.39;;
72028;Laerm;59781;52.090;5.030;2023-02-01T00:24:09;40.84;37.63;60.13;;
72028;Laerm;59781;52.090;5.030;2023-02-01T00:26:39;41.05;38.18;53.63;;
72028;Laerm;59781;52.090;5.030;2023-02-01T00:29:15;44.47;38.47;69.08;;
72028;Laerm;59781;52.090;5.030;2023-02-01T00:31:44;42.35;37.85;66.05;;
72028;Laerm;59781;52.090;5.030;2023-02-01T00:34:16;40.26;37.81;46.98;;
72028;Laerm;59781;52.090;5.030;2023-02-01T00:36:43;42.05;37.93;67.41;;
72028;Laerm;59781;52.090;5.030;2023-02-01T00:39:10;41.00;37.41;63.15;;
72028;Laerm;59781;52.090;5.030;2023-02-01T00:41:36;40.06;37.05;50.08;;
72028;Laerm;59781;52.090;5.030;2023-02-01T00:44:03;43.11;38.11;62.47;;
72028;Laerm;59781;52.090;5.030;2023-02-01T00:46:30;41.22;37.88;57.65;;
72028;Laerm;59781;52.090;5.030;2023-02-01T00:48:56;43.16;38.18;66.41;;
72028;Laerm;59781;52.090;5.030;2023-02-01T00:51:26;44.94;37.88;68.60;;
72028;Laerm;59781;52.090;5.030;2023-02-01T00:53:52;47.99;38.00;64.49;;
72028;Laerm;59781;52.090;5.030;2023-02-01T00:56:19;40.82;37.57;60.00;;
72028;Laerm;59781;52.090;5.030;2023-02-01T00:58:45;45.41;37.73;70.09;;
72028;Laerm;59781;52.090;5.030;2023-02-01T01:01:19;40.43;37.81;53.64;;
72028;Laerm;59781;52.090;5.030;2023-02-01T01:03:50;40.79;37.63;55.15;;
72028;Laerm;59781;52.090;5.030;2023-02-01T01:06:23;43.24;37.79;65.19;;
72028;Laerm;59781;52.090;5.030;2023-02-01T01:08:53;40.82;37.60;54.77;;
72028;Laerm;59781;52.090;5.030;2023-02-01T01:11:24;41.25;37.88;58.09;;
72028;Laerm;59781;52.090;5.030;2023-02-01T01:13:52;39.89;37.24;48.57;;
72028;Laerm;59781;52.090;5.030;2023-02-01T01:16:22;40.34;38.03;47.77;;
72028;Laerm;59781;52.090;5.030;2023-02-01T01:18:48;41.64;37.62;61.89;;
72028;Laerm;59781;52.090;5.030;2023-02-01T01:21:16;43.43;37.25;64.90;;
72028;Laerm;59781;52.090;5.030;2023-02-01T01:23:44;40.36;37.29;47.98;;
72028;Laerm;59781;52.090;5.030;2023-02-01T01:26:19;41.60;37.87;55.36;;
72028;Laerm;59781;52.090;5.030;2023-02-01T01:28:46;41.45;37.49;60.15;;
72028;Laerm;59781;52.090;5.030;2023-02-01T01:31:15;44.35;37.68;67.73;;
72028;Laerm;59781;52.090;5.030;2023-02-01T01:33:43;43.08;37.64;67.38;;
72028;Laerm;59781;52.090;5.030;2023-02-01T01:36:12;45.00;37.75;71.81;;
72028;Laerm;59781;52.090;5.030;2023-02-01T01:38:41;41.89;37.42;59.53;;
72028;Laerm;59781;52.090;5.030;2023-02-01T01:41:13;41.85;37.47;55.90;;
72028;Laerm;59781;52.090;5.030;2023-02-01T01:43:58;40.39;37.40;50.87;;
72028;Laerm;59781;52.090;5.030;2023-02-01T01:46:37;41.15;37.60;61.91;;
72028;Laerm;59781;52.090;5.030;2023-02-01T01:49:22;40.21;37.59;52.50;;
72028;Laerm;59781;52.090;5.030;2023-02-01T01:51:57;39.92;37.50;51.80;;
72028;Laerm;59781;52.090;5.030;2023-02-01T01:54:47;40.61;37.72;51.32;;
72028;Laerm;59781;52.090;5.030;2023-02-01T01:57:24;42.59;38.21;56.54;;
72028;Laerm;59781;52.090;5.030;2023-02-01T02:00:17;44.11;38.30;71.09;;
72028;Laerm;59781;52.090;5.030;2023-02-01T02:02:54;42.99;37.56;62.11;;
72028;Laerm;59781;52.090;5.030;2023-02-01T02:05:22;43.35;38.19;64.11;;
72028;Laerm;59781;52.090;5.030;2023-02-01T02:07:53;41.82;37.80;64.55;;
72028;Laerm;59781;52.090;5.030;2023-02-01T02:10:19;41.63;37.60;55.54;;
72028;Laerm;59781;52.090;5.030;2023-02-01T02:12:48;42.91;38.43;65.09;;
72028;Laerm;59781;52.090;5.030;2023-02-01T02:15:16;40.66;37.85;57.65;;
72028;Laerm;59781;52.090;5.030;2023-02-01T02:18:09;41.08;37.84;55.85;;
72028;Laerm;59781;52.090;5.030;2023-02-01T02:24:03;43.25;37.98;65.45;;
72028;Laerm;59781;52.090;5.030;2023-02-01T02:26:57;41.84;37.94;58.96;;
72028;Laerm;59781;52.090;5.030;2023-02-01T02:35:30;41.73;38.23;59.91;;
72028;Laerm;59781;52.090;5.030;2023-02-01T02:38:24;43.36;38.29;70.21;;
72028;Laerm;59781;52.090;5.030;2023-02-01T02:44:12;43.83;38.43;65.04;;
72028;Laerm;59781;52.090;5.030;2023-02-01T02:47:11;43.68;37.76;66.20;;
72028;Laerm;59781;52.090;5.030;2023-02-01T02:53:12;47.79;37.92;75.31;;
72028;Laerm;59781;52.090;5.030;2023-02-01T02:56:01;43.13;38.21;66.45;;
72028;Laerm;59781;52.090;5.030;2023-02-01T02:58:47;42.25;38.27;62.66;;
72028;Laerm;59781;52.090;5.030;2023-02-01T03:01:33;41.96;38.23;61.97;;
72028;Laerm;59781;52.090;5.030;2023-02-01T03:04:18;43.45;38.00;69.14;;
72028;Laerm;59781;52.090;5.030;2023-02-01T03:06:47;46.41;37.98;71.11;;
72028;Laerm;59781;52.090;5.030;2023-02-01T03:09:26;43.75;38.52;65.23;;
72028;Laerm;59781;52.090;5.030;2023-02-01T03:12:04;43.83;39.11;59.98;;
72028;Laerm;59781;52.090;5.030;2023-02-01T03:15:03;42.62;38.92;58.57;;
72028;Laerm;59781;52.090;5.030;2023-02-01T03:17:39;45.21;38.19;67.10;;
72028;Laerm;59781;52.090;5.030;2023-02-01T03:20:11;44.98;39.05;67.85;;
72028;Laerm;59781;52.090;5.030;2023-02-01T03:22:43;45.39;39.44;72.35;;
72028;Laerm;59781;52.090;5.030;2023-02-01T03:25:21;41.59;38.32;61.41;;
72028;Laerm;59781;52.090;5.030;2023-02-01T03:28:00;41.35;38.58;56.85;;
72028;Laerm;59781;52.090;5.030;2023-02-01T03:30:42;40.95;37.63;50.00;;
72028;Laerm;59781;52.090;5.030;2023-02-01T03:33:19;44.61;39.23;67.92;;
72028;Laerm;59781;52.090;5.030;2023-02-01T03:36:12;43.08;38.40;64.29;;
72028;Laerm;59781;52.090;5.030;2023-02-01T03:41:47;45.69;38.57;68.44;;
72028;Laerm;59781;52.090;5.030;2023-02-01T03:47:14;44.30;39.39;62.99;;
72028;Laerm;59781;52.090;5.030;2023-02-01T03:49:55;42.72;38.78;59.12;;
72028;Laerm;59781;52.090;5.030;2023-02-01T03:52:33;48.58;39.11;74.90;;
72028;Laerm;59781;52.090;5.030;2023-02-01T03:55:06;46.90;39.86;68.62;;
72028;Laerm;59781;52.090;5.030;2023-02-01T03:57:43;45.75;39.76;69.48;;
72028;Laerm;59781;52.090;5.030;2023-02-01T04:00:23;48.45;38.43;76.04;;
72028;Laerm;59781;52.090;5.030;2023-02-01T04:02:52;44.07;39.46;65.75;;
72028;Laerm;59781;52.090;5.030;2023-02-01T04:05:19;42.07;39.06;50.52;;
72028;Laerm;59781;52.090;5.030;2023-02-01T04:07:58;44.64;39.85;63.70;;
72028;Laerm;59781;52.090;5.030;2023-02-01T04:10:24;43.89;40.14;63.45;;
72028;Laerm;59781;52.090;5.030;2023-02-01T04:12:51;51.03;40.14;75.96;;
72028;Laerm;59781;52.090;5.030;2023-02-01T04:15:16;44.94;40.34;59.94;;
72028;Laerm;59781;52.090;5.030;2023-02-01T04:17:42;45.53;39.42;66.11;;
72028;Laerm;59781;52.090;5.030;2023-02-01T04:20:09;43.12;39.90;54.93;;
72028;Laerm;59781;52.090;5.030;2023-02-01T04:22:35;44.25;39.52;60.19;;
72028;Laerm;59781;52.090;5.030;2023-02-01T04:25:01;49.64;40.29;74.89;;
72028;Laerm;59781;52.090;5.030;2023-02-01T04:27:27;45.28;40.38;62.63;;
72028;Laerm;59781;52.090;5.030;2023-02-01T04:29:53;43.61;40.70;52.48;;
72028;Laerm;59781;52.090;5.030;2023-02-01T04:32:18;49.78;41.08;78.67;;
72028;Laerm;59781;52.090;5.030;2023-02-01T04:34:45;49.78;40.69;75.21;;
72028;Laerm;59781;52.090;5.030;2023-02-01T04:37:11;46.77;41.07;69.15;;
72028;Laerm;59781;52.090;5.030;2023-02-01T04:39:37;45.23;40.62;65.89;;
72028;Laerm;59781;52.090;5.030;2023-02-01T04:42:03;43.97;40.07;53.24;;
72028;Laerm;59781;52.090;5.030;2023-02-01T04:44:29;46.96;41.19;61.76;;
72028;Laerm;59781;52.090;5.030;2023-02-01T04:46:55;47.11;40.84;64.88;;
72028;Laerm;59781;52.090;5.030;2023-02-01T04:49:21;44.57;41.53;56.27;;
72028;Laerm;59781;52.090;5.030;2023-02-01T04:51:47;45.75;41.40;67.04;;
72028;Laerm;59781;52.090;5.030;2023-02-01T04:54:13;52.62;42.12;76.87;;
72028;Laerm;59781;52.090;5.030;2023-02-01T04:56:40;47.93;41.91;67.47;;
72028;Laerm;59781;52.090;5.030;2023-02-01T04:59:06;46.76;41.86;72.15;;
72028;Laerm;59781;52.090;5.030;2023-02-01T05:01:32;45.68;41.35;61.54;;
72028;Laerm;59781;52.090;5.030;2023-02-01T05:03:58;56.40;40.67;85.35;;
72028;Laerm;59781;52.090;5.030;2023-02-01T05:06:24;45.77;41.54;61.05;;
72028;Laerm;59781;52.090;5.030;2023-02-01T05:08:50;45.62;42.20;59.38;;
72028;Laerm;59781;52.090;5.030;2023-02-01T05:11:15;48.60;41.38;72.78;;
72028;Laerm;59781;52.090;5.030;2023-02-01T05:14:00;46.92;42.36;58.47;;
72028;Laerm;59781;52.090;5.030;2023-02-01T05:16:26;47.02;42.29;67.90;;
72028;Laerm;59781;52.090;5.030;2023-02-01T05:18:53;49.28;43.68;65.05;;
72028;Laerm;59781;52.090;5.030;2023-02-01T05:21:19;46.98;42.95;55.12;;
72028;Laerm;59781;52.090;5.030;2023-02-01T05:23:45;46.81;42.94;64.53;;
72028;Laerm;59781;52.090;5.030;2023-02-01T05:26:29;45.78;42.72;56.39;;
72028;Laerm;59781;52.090;5.030;2023-02-01T05:28:55;47.52;43.35;68.69;;
72028;Laerm;59781;52.090;5.030;2023-02-01T05:31:21;47.36;42.30;69.36;;
72028;Laerm;59781;52.090;5.030;2023-02-01T05:33:47;46.93;42.56;61.11;;
72028;Laerm;59781;52.090;5.030;2023-02-01T05:36:13;46.70;43.08;60.64;;
72028;Laerm;59781;52.090;5.030;2023-02-01T05:38:40;47.92;43.16;65.27;;
72028;Laerm;59781;52.090;5.030;2023-02-01T05:41:06;54.02;42.83;84.86;;
72028;Laerm;59781;52.090;5.030;2023-02-01T05:43:32;53.59;42.41;82.14;;
72028;Laerm;59781;52.090;5.030;2023-02-01T05:45:58;47.65;43.30;62.61;;
72028;Laerm;59781;52.090;5.030;2023-02-01T05:48:24;47.73;43.92;61.99;;
72028;Laerm;59781;52.090;5.030;2023-02-01T05:50:49;47.25;43.48;62.99;;
72028;Laerm;59781;52.090;5.030;2023-02-01T05:53:15;47.63;43.64;64.10;;
72028;Laerm;59781;52.090;5.030;2023-02-01T05:55:42;46.23;42.27;58.67;;
72028;Laerm;59781;52.090;5.030;2023-02-01T05:58:08;48.01;43.17;67.09;;
72028;Laerm;59781;52.090;5.030;2023-02-01T06:00:34;47.55;43.84;58.40;;
72028;Laerm;59781;52.090;5.030;2023-02-01T06:03:00;48.62;42.34;74.60;;
72028;Laerm;59781;52.090;5.030;2023-02-01T06:05:27;49.17;42.84;71.61;;
72028;Laerm;59781;52.090;5.030;2023-02-01T06:07:52;48.41;43.32;71.83;;
72028;Laerm;59781;52.090;5.030;2023-02-01T06:10:19;46.79;43.43;53.33;;
72028;Laerm;59781;52.090;5.030;2023-02-01T06:12:45;47.81;43.35;63.74;;
72028;Laerm;59781;52.090;5.030;2023-02-01T06:15:13;50.57;43.52;71.90;;
72028;Laerm;59781;52.090;5.030;2023-02-01T06:17:43;47.83;44.60;58.72;;
72028;Laerm;59781;52.090;5.030;2023-02-01T06:20:12;51.31;44.40;76.49;;
72028;Laerm;59781;52.090;5.030;2023-02-01T06:22:39;48.90;43.47;69.59;;
72028;Laerm;59781;52.090;5.030;2023-02-01T06:25:08;47.36;42.83;58.17;;
72028;Laerm;59781;52.090;5.030;2023-02-01T06:27:35;50.14;43.58;81.71;;
72028;Laerm;59781;52.090;5.030;2023-02-01T06:30:05;47.69;43.69;64.39;;
72028;Laerm;59781;52.090;5.030;2023-02-01T06:32:32;53.87;44.05;80.35;;
72028;Laerm;59781;52.090;5.030;2023-02-01T06:34:58;50.96;42.87;69.91;;
72028;Laerm;59781;52.090;5.030;2023-02-01T06:37:25;47.65;44.05;59.61;;
72028;Laerm;59781;52.090;5.030;2023-02-01T06:39:53;47.28;43.43;56.88;;
72028;Laerm;59781;52.090;5.030;2023-02-01T06:42:18;46.96;42.85;52.27;;
72028;Laerm;59781;52.090;5.030;2023-02-01T06:44:44;52.26;43.38;80.95;;
72028;Laerm;59781;52.090;5.030;2023-02-01T06:47:10;47.53;44.42;61.94;;
72028;Laerm;59781;52.090;5.030;2023-02-01T06:49:36;48.17;44.57;55.06;;
72028;Laerm;59781;52.090;5.030;2023-02-01T06:52:01;48.09;44.75;54.67;;
72028;Laerm;59781;52.090;5.030;2023-02-01T06:54:28;47.44;43.52;66.48;;
72028;Laerm;59781;52.090;5.030;2023-02-01T06:56:53;47.13;43.49;57.47;;
72028;Laerm;59781;52.090;5.030;2023-02-01T06:59:19;48.54;44.21;59.86;;
72028;Laerm;59781;52.090;5.030;2023-02-01T07:01:45;48.33;44.23;62.01;;
72028;Laerm;59781;52.090;5.030;2023-02-01T07:04:12;49.57;44.90;64.19;;
72028;Laerm;59781;52.090;5.030;2023-02-01T07:06:39;48.60;44.08;63.84;;
72028;Laerm;59781;52.090;5.030;2023-02-01T07:09:05;49.89;44.02;71.81;;
72028;Laerm;59781;52.090;5.030;2023-02-01T07:11:31;49.17;44.58;64.69;;
72028;Laerm;59781;52.090;5.030;2023-02-01T07:13:58;48.44;44.24;64.02;;
72028;Laerm;59781;52.090;5.030;2023-02-01T07:16:24;47.76;44.06;57.56;;
72028;Laerm;59781;52.090;5.030;2023-02-01T07:18:52;48.21;44.03;58.49;;
72028;Laerm;59781;52.090;5.030;2023-02-01T07:21:19;48.61;44.50;65.47;;
72028;Laerm;59781;52.090;5.030;2023-02-01T07:23:45;49.35;44.79;71.22;;
72028;Laerm;59781;52.090;5.030;2023-02-01T07:26:13;51.47;44.39;78.75;;
72028;Laerm;59781;52.090;5.030;2023-02-01T07:28:40;49.74;44.28;73.20;;
72028;Laerm;59781;52.090;5.030;2023-02-01T07:31:11;48.75;45.07;65.96;;
72028;Laerm;59781;52.090;5.030;2023-02-01T09:07:39;48.39;44.61;64.10;;
72028;Laerm;59781;52.090;5.030;2023-02-01T09:10:06;47.79;44.17;55.02;;
72028;Laerm;59781;52.090;5.030;2023-02-01T09:12:34;47.57;43.80;59.26;;
72028;Laerm;59781;52.090;5.030;2023-02-01T09:15:00;49.33;43.94;67.68;;
72028;Laerm;59781;52.090;5.030;2023-02-01T09:17:28;49.19;44.52;61.94;;
72028;Laerm;59781;52.090;5.030;2023-02-01T09:19:54;50.76;44.97;64.95;;
72028;Laerm;59781;52.090;5.030;2023-02-01T09:22:21;51.94;45.81;73.12;;
72028;Laerm;59781;52.090;5.030;2023-02-01T09:24:47;49.31;45.15;64.95;;
72028;Laerm;59781;52.090;5.030;2023-02-01T09:27:12;49.64;45.44;69.12;;
72028;Laerm;59781;52.090;5.030;2023-02-01T09:29:38;48.63;44.74;66.30;;
72028;Laerm;59781;52.090;5.030;2023-02-01T09:32:04;47.33;43.82;62.33;;
72028;Laerm;59781;52.090;5.030;2023-02-01T09:34:30;48.81;44.29;72.43;;
72028;Laerm;59781;52.090;5.030;2023-02-01T09:36:56;54.18;44.60;82.25;;
72028;Laerm;59781;52.090;5.030;2023-02-01T09:39:22;50.53;44.99;72.03;;
72028;Laerm;59781;52.090;5.030;2023-02-01T09:45:04;51.84;45.98;67.89;;
72028;Laerm;59781;52.090;5.030;2023-02-01T09:47:32;53.03;44.18;75.86;;
72028;Laerm;59781;52.090;5.030;2023-02-01T09:50:15;50.12;45.28;63.80;;
72028;Laerm;59781;52.090;5.030;2023-02-01T09:53:06;48.82;44.92;71.24;;
72028;Laerm;59781;52.090;5.030;2023-02-01T09:55:48;52.33;43.87;76.94;;
72028;Laerm;59781;52.090;5.030;2023-02-01T09:58:40;52.00;44.10;77.13;;
72028;Laerm;59781;52.090;5.030;2023-02-01T10:01:20;50.99;45.28;69.09;;
72028;Laerm;59781;52.090;5.030;2023-02-01T10:03:59;49.85;44.75;69.91;;
72028;Laerm;59781;52.090;5.030;2023-02-01T10:07:07;50.74;44.07;72.31;;
72028;Laerm;59781;52.090;5.030;2023-02-01T10:10:10;49.14;44.91;66.37;;
72028;Laerm;59781;52.090;5.030;2023-02-01T10:16:26;50.72;45.10;68.53;;
72028;Laerm;59781;52.090;5.030;2023-02-01T10:19:37;50.75;43.68;81.16;;
72028;Laerm;59781;52.090;5.030;2023-02-01T10:22:11;52.68;44.49;77.12;;
72028;Laerm;59781;52.090;5.030;2023-02-01T10:27:37;51.05;43.92;73.36;;
72028;Laerm;59781;52.090;5.030;2023-02-01T10:30:24;49.21;44.45;62.26;;
72028;Laerm;59781;52.090;5.030;2023-02-01T10:32:59;50.30;43.93;70.85;;
72028;Laerm;59781;52.090;5.030;2023-02-01T10:35:36;50.68;44.36;71.95;;
72028;Laerm;59781;52.090;5.030;2023-02-01T10:38:12;50.14;44.31;66.78;;
72028;Laerm;59781;52.090;5.030;2023-02-01T10:40:42;50.16;44.47;66.45;;
72028;Laerm;59781;52.090;5.030;2023-02-01T10:43:09;49.76;44.54;73.51;;
72028;Laerm;59781;52.090;5.030;2023-02-01T10:45:38;49.81;44.92;71.42;;
72028;Laerm;59781;52.090;5.030;2023-02-01T10:48:07;49.56;44.43;72.27;;
72028;Laerm;59781;52.090;5.030;2023-02-01T10:50:59;49.51;43.67;66.10;;
72028;Laerm;59781;52.090;5.030;2023-02-01T10:53:38;52.19;43.96;76.12;;
72028;Laerm;59781;52.090;5.030;2023-02-01T10:56:13;54.48;45.09;76.23;;
72028;Laerm;59781;52.090;5.030;2023-02-01T10:58:47;58.07;44.26;81.56;;
72028;Laerm;59781;52.090;5.030;2023-02-01T11:01:28;49.73;44.75;74.08;;
72028;Laerm;59781;52.090;5.030;2023-02-01T11:03:58;55.47;45.51;86.04;;
72028;Laerm;59781;52.090;5.030;2023-02-01T11:06:34;52.71;44.51;74.41;;
72028;Laerm;59781;52.090;5.030;2023-02-01T11:09:18;51.06;44.67;77.09;;
72028;Laerm;59781;52.090;5.030;2023-02-01T11:16:56;49.57;44.98;66.56;;
72028;Laerm;59781;52.090;5.030;2023-02-01T11:19:23;53.76;44.21;79.48;;
72028;Laerm;59781;52.090;5.030;2023-02-01T11:21:52;50.41;45.23;69.20;;
72028;Laerm;59781;52.090;5.030;2023-02-01T11:24:26;48.68;44.83;59.86;;
72028;Laerm;59781;52.090;5.030;2023-02-01T11:27:00;49.87;44.75;68.42;;
72028;Laerm;59781;52.090;5.030;2023-02-01T11:29:38;52.26;44.42;70.15;;
72028;Laerm;59781;52.090;5.030;2023-02-01T11:32:10;48.15;44.84;56.13;;
72028;Laerm;59781;52.090;5.030;2023-02-01T11:34:45;48.90;44.47;61.16;;
72028;Laerm;59781;52.090;5.030;2023-02-01T11:40:01;52.13;44.20;77.58;;
72028;Laerm;59781;52.090;5.030;2023-02-01T11:42:30;48.09;44.44;62.88;;
72028;Laerm;59781;52.090;5.030;2023-02-01T11:45:25;51.00;44.42;71.05;;
72028;Laerm;59781;52.090;5.030;2023-02-01T11:47:53;56.50;44.49;84.63;;
72028;Laerm;59781;52.090;5.030;2023-02-01T11:54:07;49.92;44.72;69.89;;
72028;Laerm;59781;52.090;5.030;2023-02-01T11:56:47;50.95;44.48;71.88;;
72028;Laerm;59781;52.090;5.030;2023-02-01T12:00:02;49.79;44.69;68.39;;
72028;Laerm;59781;52.090;5.030;2023-02-01T12:05:34;51.26;44.98;76.42;;
72028;Laerm;59781;52.090;5.030;2023-02-01T12:11:58;54.14;45.29;77.81;;
72028;Laerm;59781;52.090;5.030;2023-02-01T12:21:03;50.18;44.47;72.29;;
72028;Laerm;59781;52.090;5.030;2023-02-01T12:24:08;49.71;43.92;68.24;;
72028;Laerm;59781;52.090;5.030;2023-02-01T12:26:51;54.51;45.53;76.14;;
72028;Laerm;59781;52.090;5.030;2023-02-01T12:29:52;50.79;45.73;69.58;;
72028;Laerm;59781;52.090;5.030;2023-02-01T12:35:38;53.23;45.92;73.78;;
72028;Laerm;59781;52.090;5.030;2023-02-01T12:38:32;54.40;46.50;75.90;;
72028;Laerm;59781;52.090;5.030;2023-02-01T12:41:44;51.90;44.94;72.51;;
72028;Laerm;59781;52.090;5.030;2023-02-01T12:44:32;51.25;45.68;74.40;;
72028;Laerm;59781;52.090;5.030;2023-02-01T12:47:21;50.98;44.80;69.30;;
72028;Laerm;59781;52.090;5.030;2023-02-01T12:53:24;50.85;44.90;70.35;;
72028;Laerm;59781;52.090;5.030;2023-02-01T12:56:04;52.48;45.91;70.94;;
72028;Laerm;59781;52.090;5.030;2023-02-01T12:58:47;53.82;44.40;78.26;;
72028;Laerm;59781;52.090;5.030;2023-02-01T13:04:36;51.59;44.05;72.55;;
72028;Laerm;59781;52.090;5.030;2023-02-01T13:07:15;53.95;44.73;77.98;;
72028;Laerm;59781;52.090;5.030;2023-02-01T13:09:53;55.75;44.04;82.44;;
72028;Laerm;59781;52.090;5.030;2023-02-01T13:12:37;55.87;45.43;75.32;;
72028;Laerm;59781;52.090;5.030;2023-02-01T13:15:13;50.75;44.12;72.33;;
72028;Laerm;59781;52.090;5.030;2023-02-01T13:17:43;50.89;44.30;77.08;;
72028;Laerm;59781;52.090;5.030;2023-02-01T13:20:34;52.21;44.03;77.30;;
72028;Laerm;59781;52.090;5.030;2023-02-01T13:23:11;47.55;43.76;59.92;;
72028;Laerm;59781;52.090;5.030;2023-02-01T13:25:52;47.93;43.99;68.99;;
72028;Laerm;59781;52.090;5.030;2023-02-01T13:28:48;53.79;45.01;77.01;;
72028;Laerm;59781;52.090;5.030;2023-02-01T13:40:45;52.20;45.47;76.33;;
72028;Laerm;59781;52.090;5.030;2023-02-01T13:43:23;55.46;46.60;76.11;;
72028;Laerm;59781;52.090;5.030;2023-02-01T13:45:56;56.02;45.58;74.00;;
72028;Laerm;59781;52.090;5.030;2023-02-01T13:48:32;48.96;44.48;67.30;;
72028;Laerm;59781;52.090;5.030;2023-02-01T13:51:01;55.17;45.56;81.62;;
72028;Laerm;59781;52.090;5.030;2023-02-01T13:53:35;49.22;44.88;63.04;;
72028;Laerm;59781;52.090;5.030;2023-02-01T13:56:13;49.37;44.51;66.19;;
72028;Laerm;59781;52.090;5.030;2023-02-01T13:58:43;54.44;45.67;79.20;;
72028;Laerm;59781;52.090;5.030;2023-02-01T14:11:51;58.55;45.09;86.49;;
72028;Laerm;59781;52.090;5.030;2023-02-01T14:19:29;51.80;44.96;77.65;;
72028;Laerm;59781;52.090;5.030;2023-02-01T14:24:54;48.63;44.41;66.10;;
72028;Laerm;59781;52.090;5.030;2023-02-01T14:27:26;56.29;45.61;84.71;;
72028;Laerm;59781;52.090;5.030;2023-02-01T14:30:06;48.39;44.36;66.32;;
72028;Laerm;59781;52.090;5.030;2023-02-01T14:32:41;48.07;44.24;59.16;;
72028;Laerm;59781;52.090;5.030;2023-02-01T14:35:26;49.07;43.86;63.57;;
72028;Laerm;59781;52.090;5.030;2023-02-01T14:38:01;48.59;44.49;58.70;;
72028;Laerm;59781;52.090;5.030;2023-02-01T14:40:33;49.47;44.65;67.10;;
72028;Laerm;59781;52.090;5.030;2023-02-01T14:43:01;52.88;45.84;76.72;;
72028;Laerm;59781;52.090;5.030;2023-02-01T14:59:06;50.06;43.18;78.48;;
72028;Laerm;59781;52.090;5.030;2023-02-01T15:01:38;48.40;44.98;62.78;;
72028;Laerm;59781;52.090;5.030;2023-02-01T15:04:17;54.64;44.51;77.22;;
72028;Laerm;59781;52.090;5.030;2023-02-01T15:06:55;49.14;44.74;70.26;;
72028;Laerm;59781;52.090;5.030;2023-02-01T15:09:43;48.78;44.07;59.66;;
72028;Laerm;59781;52.090;5.030;2023-02-01T15:14:48;49.82;45.06;67.52;;
72028;Laerm;59781;52.090;5.030;2023-02-01T15:17:27;51.69;44.24;67.66;;
72028;Laerm;59781;52.090;5.030;2023-02-01T15:20:23;51.81;44.88;76.53;;
72028;Laerm;59781;52.090;5.030;2023-02-01T15:23:02;49.50;44.89;69.57;;
72028;Laerm;59781;52.090;5.030;2023-02-01T15:25:34;51.51;44.80;62.83;;
72028;Laerm;59781;52.090;5.030;2023-02-01T15:28:08;49.25;45.37;58.83;;
72028;Laerm;59781;52.090;5.030;2023-02-01T15:30:36;49.16;44.55;64.68;;
72028;Laerm;59781;52.090;5.030;2023-02-01T15:33:15;50.24;44.58;71.68;;
72028;Laerm;59781;52.090;5.030;2023-02-01T15:41:14;49.42;44.96;65.30;;
72028;Laerm;59781;52.090;5.030;2023-02-01T15:44:02;49.10;44.71;57.14;;
72028;Laerm;59781;52.090;5.030;2023-02-01T15:46:40;49.42;44.91;67.52;;
72028;Laerm;59781;52.090;5.030;2023-02-01T15:49:42;49.61;44.53;67.94;;
72028;Laerm;59781;52.090;5.030;2023-02-01T15:52:35;50.75;44.09;72.03;;
72028;Laerm;59781;52.090;5.030;2023-02-01T15:55:16;51.26;44.86;71.61;;
72028;Laerm;59781;52.090;5.030;2023-02-01T15:57:43;49.35;44.89;59.03;;
72028;Laerm;59781;52.090;5.030;2023-02-01T16:00:44;50.44;44.98;70.73;;
72028;Laerm;59781;52.090;5.030;2023-02-01T16:03:37;48.10;44.80;56.34;;
72028;Laerm;59781;52.090;5.030;2023-02-01T16:08:59;56.94;46.02;90.00;;
72028;Laerm;59781;52.090;5.030;2023-02-01T16:11:39;53.20;45.09;81.18;;
72028;Laerm;59781;52.090;5.030;2023-02-01T16:14:05;51.65;45.51;76.82;;
72028;Laerm;59781;52.090;5.030;2023-02-01T16:16:31;49.00;45.11;62.19;;
72028;Laerm;59781;52.090;5.030;2023-02-01T16:18:56;49.47;45.20;66.62;;
72028;Laerm;59781;52.090;5.030;2023-02-01T16:21:22;49.48;44.66;70.25;;
72028;Laerm;59781;52.090;5.030;2023-02-01T16:23:52;49.42;45.33;68.47;;
72028;Laerm;59781;52.090;5.030;2023-02-01T16:26:19;48.53;44.44;65.31;;
72028;Laerm;59781;52.090;5.030;2023-02-01T16:28:46;49.08;45.27;63.81;;
72028;Laerm;59781;52.090;5.030;2023-02-01T16:31:21;48.62;44.64;60.48;;
72028;Laerm;59781;52.090;5.030;2023-02-01T16:33:50;48.68;44.96;63.69;;
72028;Laerm;59781;52.090;5.030;2023-02-01T16:36:18;49.62;44.89;68.82;;
72028;Laerm;59781;52.090;5.030;2023-02-01T16:38:45;50.39;44.56;69.79;;
72028;Laerm;59781;52.090;5.030;2023-02-01T16:41:14;50.65;43.85;71.71;;
72028;Laerm;59781;52.090;5.030;2023-02-01T16:43:41;49.44;44.39;68.73;;
72028;Laerm;59781;52.090;5.030;2023-02-01T16:46:15;47.44;43.78;55.14;;
72028;Laerm;59781;52.090;5.030;2023-02-01T16:48:48;48.91;43.67;64.36;;
72028;Laerm;59781;52.090;5.030;2023-02-01T16:51:16;48.28;44.10;59.90;;
72028;Laerm;59781;52.090;5.030;2023-02-01T16:53:45;50.91;44.65;74.14;;
72028;Laerm;59781;52.090;5.030;2023-02-01T16:56:22;47.94;44.17;57.22;;
72028;Laerm;59781;52.090;5.030;2023-02-01T16:58:49;49.82;44.96;74.29;;
72028;Laerm;59781;52.090;5.030;2023-02-01T17:01:17;48.03;43.95;59.79;;
72028;Laerm;59781;52.090;5.030;2023-02-01T17:03:45;48.45;44.22;66.61;;
72028;Laerm;59781;52.090;5.030;2023-02-01T17:06:18;50.57;44.69;73.51;;
72028;Laerm;59781;52.090;5.030;2023-02-01T17:08:51;48.16;43.88;57.98;;
72028;Laerm;59781;52.090;5.030;2023-02-01T17:11:18;48.67;43.76;70.14;;
72028;Laerm;59781;52.090;5.030;2023-02-01T17:13:44;49.36;44.77;71.94;;
72028;Laerm;59781;52.090;5.030;2023-02-01T17:16:29;49.44;43.70;72.96;;
72028;Laerm;59781;52.090;5.030;2023-02-01T17:19:04;47.35;44.09;56.44;;
72028;Laerm;59781;52.090;5.030;2023-02-01T17:21:41;48.73;43.67;71.99;;
72028;Laerm;59781;52.090;5.030;2023-02-01T17:24:16;47.00;43.49;59.58;;
72028;Laerm;59781;52.090;5.030;2023-02-01T17:26:44;47.97;44.42;61.10;;
72028;Laerm;59781;52.090;5.030;2023-02-01T17:29:11;47.57;43.73;66.34;;
72028;Laerm;59781;52.090;5.030;2023-02-01T17:31:42;47.65;44.24;59.69;;
72028;Laerm;59781;52.090;5.030;2023-02-01T17:34:12;52.83;43.68;78.95;;
72028;Laerm;59781;52.090;5.030;2023-02-01T17:36:41;47.36;43.61;64.06;;
72028;Laerm;59781;52.090;5.030;2023-02-01T17:39:08;49.25;43.51;71.99;;
72028;Laerm;59781;52.090;5.030;2023-02-01T17:41:35;47.42;43.54;63.57;;
72028;Laerm;59781;52.090;5.030;2023-02-01T17:44:01;48.57;43.30;68.08;;
72028;Laerm;59781;52.090;5.030;2023-02-01T17:46:27;52.31;42.34;84.16;;
72028;Laerm;59781;52.090;5.030;2023-02-01T17:48:54;47.52;43.45;60.43;;
72028;Laerm;59781;52.090;5.030;2023-02-01T17:51:24;46.64;43.06;51.90;;